Accueil
METAR-TAF:

METAR-TAF

Aéroports :

Aéroport de Saint-Étienne-Loire

Saint-Etienne, France

latitude: 45-32N, longitude: 004-18E, altitude: 404 m

Observation

Le bulletin a été fait il y a 24 minutes, à 20:00 UTC
Vent 3 kt de direction variable
Température 15°C
Humidité 88%
Pression 1029 hPa
Visibilité 10 km ou plus
Ciel couvert à une hauteur de 3100 ft

METAR: LFMH 062000Z AUTO VRB03KT 9999 OVC031 15/13 Q1029

Heure: 22:24 (20:24 UTC)


TAF: absent

Observations et prévisions météorologiques de plus de 4000 aéroports (messages METAR et TAF).

Les stations disponibles sont représentées par des disques jaunes et rouges sur la carte.

Passer la souris dessus pour voir le nom de la station.

Cliquer dessus pour voir les observations et prévisions météorologiques.

Pour changer de carte: cliquez sur les boutons verts avec une croix noire pour zoomer, sur le bouton vert avec un tiret pour effectuer un zoom arrière, ou sur les flèches vertes pour les cartes adjacentes.


METAR-TAF: